createdAt,value
2018-09-03T00:00:11.625Z,20.60
2018-09-03T00:02:39.950Z,20.60
2018-09-03T00:05:09.628Z,20.60
2018-09-03T00:07:38.039Z,20.60
2018-09-03T00:10:06.446Z,20.60
2018-09-03T00:12:34.979Z,20.60
2018-09-03T00:15:03.387Z,20.60
2018-09-03T00:17:31.827Z,20.60
2018-09-03T00:20:00.212Z,20.50
2018-09-03T00:22:28.670Z,20.60
2018-09-03T00:24:57.054Z,20.60
2018-09-03T00:27:25.524Z,20.60
2018-09-03T00:29:53.906Z,20.60
2018-09-03T00:32:28.401Z,20.60
2018-09-03T00:35:02.171Z,20.50
2018-09-03T00:37:36.897Z,20.50
2018-09-03T00:40:14.431Z,20.40
2018-09-03T00:42:48.696Z,20.40
2018-09-03T00:45:22.543Z,20.30
2018-09-03T00:47:50.999Z,20.30
2018-09-03T00:50:19.479Z,20.40
2018-09-03T00:52:48.376Z,20.40
2018-09-03T00:55:16.816Z,20.40
2018-09-03T00:57:45.370Z,20.40
2018-09-03T01:00:13.818Z,20.40
2018-09-03T01:02:42.261Z,20.40
2018-09-03T01:05:10.621Z,20.30
2018-09-03T01:07:39.654Z,20.30
2018-09-03T01:10:08.033Z,20.30
2018-09-03T01:12:36.457Z,20.30
2018-09-03T01:15:04.886Z,20.30
2018-09-03T01:17:33.256Z,20.30
2018-09-03T01:20:02.008Z,20.30
2018-09-03T01:22:30.748Z,20.30
2018-09-03T01:24:59.150Z,20.20
2018-09-03T01:27:27.595Z,20.20
2018-09-03T01:29:56.011Z,20.30
2018-09-03T01:32:24.650Z,20.30
2018-09-03T01:34:53.053Z,20.30
2018-09-03T01:37:21.713Z,20.20
2018-09-03T01:39:50.086Z,20.20
2018-09-03T01:42:18.715Z,20.20
2018-09-03T01:44:47.073Z,20.20
2018-09-03T01:47:15.494Z,20.20
2018-09-03T01:49:43.967Z,20.20
2018-09-03T01:52:12.433Z,20.30
2018-09-03T01:54:40.889Z,20.20
2018-09-03T01:57:09.263Z,20.20
2018-09-03T01:59:37.874Z,20.20
2018-09-03T02:02:06.185Z,20.20
2018-09-03T02:04:34.733Z,20.20
2018-09-03T02:07:03.148Z,20.20
2018-09-03T02:09:31.538Z,20.20
2018-09-03T02:11:59.908Z,20.20
2018-09-03T02:14:28.292Z,20.20
2018-09-03T02:16:56.783Z,20.20
2018-09-03T02:19:25.218Z,20.20
2018-09-03T02:21:53.597Z,20.20
2018-09-03T02:24:22.133Z,20.20
2018-09-03T02:26:50.748Z,20.10
2018-09-03T02:29:19.274Z,20.10
2018-09-03T02:31:47.633Z,20.10
2018-09-03T02:34:16.288Z,20.10
2018-09-03T02:36:44.723Z,20.10
2018-09-03T02:39:13.295Z,20.00
2018-09-03T02:41:41.728Z,20.00
2018-09-03T02:44:10.262Z,20.00
2018-09-03T02:46:38.734Z,20.00
2018-09-03T02:49:07.555Z,20.00
2018-09-03T02:51:35.964Z,20.00
2018-09-03T02:54:04.672Z,20.00
2018-09-03T02:56:33.128Z,20.00
2018-09-03T02:59:01.667Z,19.90
2018-09-03T03:01:30.124Z,19.90
2018-09-03T03:03:58.577Z,19.90
2018-09-03T03:06:27.058Z,19.90
2018-09-03T03:08:55.635Z,19.90
2018-09-03T03:11:24.463Z,19.90
2018-09-03T03:13:52.922Z,19.80
2018-09-03T03:16:21.508Z,19.80
2018-09-03T03:18:49.922Z,19.80
2018-09-03T03:21:18.696Z,19.70
2018-09-03T03:23:47.349Z,19.70
2018-09-03T03:26:15.773Z,19.70
2018-09-03T03:28:44.765Z,19.60
2018-09-03T03:31:13.451Z,19.60
2018-09-03T03:33:41.940Z,19.60
2018-09-03T03:36:10.509Z,19.60
2018-09-03T03:38:38.922Z,19.60
2018-09-03T03:41:07.401Z,19.50
2018-09-03T03:43:35.788Z,19.60
2018-09-03T03:46:04.186Z,19.50
2018-09-03T03:48:32.702Z,19.50
2018-09-03T03:51:01.815Z,19.50
2018-09-03T03:53:30.300Z,19.50
2018-09-03T03:55:58.751Z,19.40
2018-09-03T03:58:28.157Z,19.30
2018-09-03T04:00:56.814Z,19.30
2018-09-03T04:03:25.325Z,19.20
2018-09-03T04:05:53.971Z,19.20
2018-09-03T04:08:22.481Z,19.10
2018-09-03T04:10:50.957Z,19.00
2018-09-03T04:13:19.445Z,19.00
2018-09-03T04:25:40.744Z,18.90
2018-09-03T04:28:09.270Z,18.80
2018-09-03T04:30:37.635Z,18.80
2018-09-03T04:33:06.071Z,18.80
2018-09-03T04:35:34.472Z,18.70
2018-09-03T04:38:02.910Z,18.70
2018-09-03T04:40:31.320Z,18.70
2018-09-03T04:42:59.851Z,18.70
2018-09-03T04:45:28.288Z,18.60
2018-09-03T04:47:56.790Z,18.60
2018-09-03T04:50:25.276Z,18.60
2018-09-03T04:52:53.719Z,18.60
2018-09-03T04:55:22.217Z,18.70
2018-09-03T04:57:50.642Z,18.70
2018-09-03T05:00:19.253Z,18.70
2018-09-03T05:02:47.620Z,18.70
2018-09-03T05:05:16.095Z,18.70
2018-09-03T05:07:44.551Z,18.70
2018-09-03T05:10:12.910Z,18.70
2018-09-03T05:12:41.378Z,18.80
2018-09-03T05:34:54.993Z,18.70
2018-09-03T05:37:23.399Z,19.10
2018-09-03T05:39:51.822Z,19.20
2018-09-03T05:42:20.225Z,19.20
2018-09-03T05:44:48.585Z,19.30
2018-09-03T05:47:17.027Z,19.40
2018-09-03T05:49:45.520Z,19.50
2018-09-03T05:52:14.024Z,19.60
2018-09-03T05:54:42.427Z,19.80
2018-09-03T05:57:10.777Z,19.80
2018-09-03T05:59:39.161Z,19.80
2018-09-03T06:02:07.555Z,19.80
2018-09-03T06:04:35.911Z,19.90
2018-09-03T06:07:04.276Z,19.80
2018-09-03T06:09:32.625Z,19.90
2018-09-03T06:12:00.988Z,20.00
2018-09-03T06:14:29.367Z,20.00
2018-09-03T06:16:57.661Z,20.10
2018-09-03T06:19:26.084Z,20.20
2018-09-03T06:21:54.498Z,20.30
2018-09-03T06:24:22.836Z,20.30
2018-09-03T06:26:51.232Z,20.40
2018-09-03T06:29:19.696Z,20.40
2018-09-03T06:31:48.068Z,20.50
2018-09-03T06:34:16.439Z,20.60
2018-09-03T06:36:44.795Z,20.70
2018-09-03T06:39:13.289Z,20.80
2018-09-03T06:41:41.558Z,20.90
2018-09-03T06:44:09.940Z,21.00
2018-09-03T06:46:38.370Z,21.20
2018-09-03T06:49:06.739Z,21.30
2018-09-03T06:51:35.198Z,21.30
2018-09-03T06:54:05.240Z,21.50
2018-09-03T06:56:33.647Z,21.60
2018-09-03T06:59:02.015Z,21.70
2018-09-03T07:01:30.356Z,21.80
2018-09-03T07:03:58.745Z,21.90
2018-09-03T07:06:27.096Z,22.00
2018-09-03T07:08:55.524Z,22.20
2018-09-03T07:11:23.882Z,22.20
2018-09-03T07:13:52.478Z,22.40
2018-09-03T07:16:20.930Z,22.40
2018-09-03T07:18:49.396Z,22.50
2018-09-03T07:21:20.032Z,22.70
2018-09-03T07:23:48.429Z,22.90
2018-09-03T07:26:17.140Z,22.90
2018-09-03T07:28:45.631Z,23.00
2018-09-03T07:31:13.978Z,23.00
2018-09-03T07:33:42.438Z,23.10
2018-09-03T07:36:10.783Z,23.10
2018-09-03T07:38:40.411Z,23.20
2018-09-03T07:41:09.418Z,23.20
2018-09-03T07:43:38.399Z,23.10
2018-09-03T07:46:06.847Z,23.00
2018-09-03T07:48:35.269Z,22.90
2018-09-03T07:51:03.729Z,23.00
2018-09-03T07:53:32.243Z,23.10
2018-09-03T07:56:00.888Z,23.30
2018-09-03T07:58:29.292Z,23.50
2018-09-03T08:00:57.677Z,23.80
2018-09-03T08:03:26.212Z,23.90
2018-09-03T08:05:54.748Z,24.10
2018-09-03T08:08:23.157Z,24.10
2018-09-03T08:10:51.832Z,24.30
2018-09-03T08:13:25.772Z,24.40
2018-09-03T08:15:54.363Z,24.60
2018-09-03T08:18:22.847Z,24.80
2018-09-03T08:20:51.270Z,24.90
2018-09-03T08:23:19.609Z,25.00
2018-09-03T08:25:48.024Z,25.10
2018-09-03T08:28:17.593Z,25.30
2018-09-03T08:30:45.970Z,25.20
2018-09-03T08:33:14.411Z,25.30
2018-09-03T08:35:42.792Z,25.30
2018-09-03T08:38:11.974Z,25.40
2018-09-03T08:40:40.405Z,25.50
2018-09-03T08:43:09.025Z,25.50
2018-09-03T08:45:37.540Z,25.40
2018-09-03T08:48:05.900Z,25.10
2018-09-03T08:50:34.237Z,24.90
2018-09-03T08:53:02.836Z,24.80
2018-09-03T08:55:31.237Z,24.80
2018-09-03T08:57:59.609Z,25.00
2018-09-03T09:00:27.968Z,25.30
2018-09-03T09:02:56.677Z,25.50
2018-09-03T09:05:25.378Z,25.60
2018-09-03T09:07:53.807Z,25.50
2018-09-03T09:10:22.164Z,25.30
2018-09-03T09:12:50.611Z,25.30
2018-09-03T09:15:19.045Z,25.50
2018-09-03T09:17:47.418Z,25.70
2018-09-03T09:20:15.780Z,26.00
2018-09-03T09:22:44.436Z,26.10
2018-09-03T09:25:12.877Z,25.90
2018-09-03T09:27:42.219Z,25.80
2018-09-03T09:30:10.564Z,25.80
2018-09-03T09:32:38.883Z,25.80
2018-09-03T09:35:07.384Z,25.80
2018-09-03T09:37:35.949Z,25.90
2018-09-03T09:40:04.574Z,26.00
2018-09-03T09:42:33.198Z,26.20
2018-09-03T09:45:01.783Z,26.50
2018-09-03T09:47:30.112Z,26.60
2018-09-03T09:49:58.700Z,26.50
2018-09-03T09:52:27.030Z,26.50
2018-09-03T09:54:55.560Z,26.50
2018-09-03T09:57:23.932Z,26.60
2018-09-03T09:59:52.366Z,26.70
2018-09-03T10:02:20.862Z,26.80
2018-09-03T10:04:49.224Z,26.70
2018-09-03T10:07:17.574Z,26.90
2018-09-03T10:09:45.924Z,26.90
2018-09-03T10:12:19.871Z,26.90
2018-09-03T10:14:48.298Z,27.10
2018-09-03T10:17:16.673Z,27.20
2018-09-03T10:19:45.052Z,27.20
2018-09-03T10:22:13.741Z,27.30
2018-09-03T10:24:42.094Z,27.30
2018-09-03T10:27:10.939Z,27.30
2018-09-03T10:29:39.333Z,27.40
2018-09-03T10:32:07.749Z,27.40
2018-09-03T10:34:36.124Z,27.40
2018-09-03T10:37:05.174Z,27.40
2018-09-03T10:39:33.606Z,27.30
2018-09-03T10:42:01.904Z,27.10
2018-09-03T10:44:30.478Z,27.20
2018-09-03T10:46:58.959Z,27.30
2018-09-03T10:49:28.009Z,27.40
2018-09-03T10:51:56.444Z,27.30
2018-09-03T10:54:24.893Z,27.50
2018-09-03T10:56:54.370Z,27.70
2018-09-03T10:59:22.754Z,27.70
2018-09-03T11:01:58.071Z,27.60
2018-09-03T11:04:26.535Z,27.80
2018-09-03T11:06:55.619Z,27.80
2018-09-03T11:09:24.224Z,27.90
2018-09-03T11:11:53.556Z,27.70
2018-09-03T11:14:24.241Z,27.60
2018-09-03T11:16:52.632Z,27.60
2018-09-03T11:19:23.715Z,27.70
2018-09-03T11:21:52.069Z,27.80
2018-09-03T11:24:20.495Z,27.70
2018-09-03T11:26:52.184Z,27.60
2018-09-03T11:29:20.666Z,27.70
2018-09-03T11:31:49.177Z,27.60
2018-09-03T11:34:17.576Z,27.70
2018-09-03T11:36:46.467Z,27.90
2018-09-03T11:39:14.888Z,28.20
2018-09-03T11:41:43.513Z,28.40
2018-09-03T11:44:11.840Z,28.40
2018-09-03T11:46:40.200Z,28.40
2018-09-03T11:49:08.506Z,28.40
2018-09-03T11:51:36.887Z,28.30
2018-09-03T11:54:05.346Z,28.30
2018-09-03T11:56:33.702Z,28.40
2018-09-03T11:59:02.064Z,28.20
2018-09-03T12:01:30.534Z,28.10
2018-09-03T12:03:58.907Z,28.30
2018-09-03T12:06:27.912Z,28.30
2018-09-03T12:08:56.242Z,28.40
2018-09-03T12:11:24.664Z,28.50
2018-09-03T12:13:53.019Z,28.60
2018-09-03T12:16:24.848Z,28.70
2018-09-03T12:18:55.632Z,29.00
2018-09-03T12:21:24.123Z,29.20
2018-09-03T12:23:52.512Z,29.30
2018-09-03T12:26:20.910Z,29.50
2018-09-03T12:28:49.307Z,30.10
2018-09-03T12:31:17.705Z,30.70
2018-09-03T12:33:46.131Z,31.40
2018-09-03T12:36:14.460Z,32.10
2018-09-03T12:38:42.800Z,32.50
2018-09-03T12:41:11.251Z,32.80
2018-09-03T12:43:39.659Z,32.80
2018-09-03T12:46:08.852Z,32.90
2018-09-03T12:48:37.216Z,33.00
2018-09-03T12:51:05.962Z,33.40
2018-09-03T12:53:34.512Z,34.10
2018-09-03T12:56:03.295Z,34.10
2018-09-03T12:58:31.711Z,34.90
2018-09-03T13:01:00.739Z,35.50
2018-09-03T13:03:29.057Z,36.00
2018-09-03T13:05:57.494Z,36.50
2018-09-03T13:08:25.905Z,36.80
2018-09-03T13:10:54.322Z,37.20
2018-09-03T13:13:22.671Z,36.50
2018-09-03T13:15:50.987Z,37.20
2018-09-03T13:18:19.312Z,37.90
2018-09-03T13:20:47.681Z,37.80
2018-09-03T13:23:16.212Z,37.80
2018-09-03T13:25:44.622Z,38.60
2018-09-03T13:28:13.578Z,39.00
2018-09-03T13:30:42.658Z,39.40
2018-09-03T13:33:11.053Z,40.00
2018-09-03T13:35:39.369Z,39.80
2018-09-03T13:38:07.766Z,38.90
2018-09-03T13:40:36.118Z,37.10
2018-09-03T13:43:04.466Z,36.80
2018-09-03T13:45:32.815Z,37.20
2018-09-03T13:48:01.190Z,37.30
2018-09-03T13:50:29.575Z,37.50
2018-09-03T13:52:58.002Z,38.20
2018-09-03T13:55:26.437Z,38.90
2018-09-03T13:57:54.860Z,39.70
2018-09-03T14:00:23.194Z,39.40
2018-09-03T14:02:51.536Z,40.20
2018-09-03T14:05:19.932Z,40.30
2018-09-03T14:07:48.308Z,39.90
2018-09-03T14:10:16.952Z,40.20
2018-09-03T14:12:55.159Z,40.70
2018-09-03T14:15:23.478Z,41.20
2018-09-03T14:17:51.945Z,41.40
2018-09-03T14:20:20.544Z,41.90
2018-09-03T14:22:49.125Z,42.00
2018-09-03T14:25:17.699Z,42.10
2018-09-03T14:27:46.098Z,42.50
2018-09-03T14:30:14.567Z,42.10
2018-09-03T14:32:43.301Z,41.40
2018-09-03T14:35:11.694Z,40.40
2018-09-03T14:37:40.079Z,40.10
2018-09-03T14:40:08.950Z,39.60
2018-09-03T14:42:39.714Z,39.50
2018-09-03T14:45:09.077Z,39.20
2018-09-03T14:47:37.768Z,39.30
2018-09-03T14:50:06.498Z,39.30
2018-09-03T14:52:34.892Z,38.80
2018-09-03T14:55:04.481Z,39.50
2018-09-03T14:57:32.922Z,39.00
2018-09-03T15:00:01.320Z,39.70
2018-09-03T15:02:30.332Z,39.90
2018-09-03T15:04:58.721Z,39.90
2018-09-03T15:07:27.132Z,40.00
2018-09-03T15:09:55.531Z,40.90
2018-09-03T15:12:23.933Z,41.80
2018-09-03T15:14:52.297Z,41.90
2018-09-03T15:17:22.778Z,40.60
2018-09-03T15:19:51.137Z,39.50
2018-09-03T15:22:19.577Z,40.00
2018-09-03T15:24:47.914Z,40.90
2018-09-03T15:27:16.326Z,41.00
2018-09-03T15:29:44.714Z,40.80
2018-09-03T15:32:13.073Z,40.90
2018-09-03T15:34:41.441Z,40.60
2018-09-03T15:37:09.826Z,40.40
2018-09-03T15:39:38.232Z,40.30
2018-09-03T15:42:06.634Z,39.90
2018-09-03T15:44:35.000Z,39.80
2018-09-03T15:47:03.571Z,39.00
2018-09-03T15:49:31.923Z,37.70
2018-09-03T15:52:00.331Z,35.90
2018-09-03T15:54:28.710Z,34.60
2018-09-03T15:56:57.118Z,33.50
2018-09-03T15:59:25.595Z,32.80
2018-09-03T16:01:54.028Z,32.10
2018-09-03T16:04:22.382Z,31.50
2018-09-03T16:06:51.467Z,31.10
2018-09-03T16:09:19.895Z,30.80
2018-09-03T16:11:48.223Z,30.60
2018-09-03T16:14:16.603Z,30.30
2018-09-03T16:16:44.926Z,30.00
2018-09-03T16:19:13.350Z,29.80
2018-09-03T16:21:41.742Z,29.80
2018-09-03T16:24:10.113Z,29.70
2018-09-03T16:26:38.567Z,29.50
2018-09-03T16:29:06.938Z,29.30
2018-09-03T16:31:35.345Z,29.10
2018-09-03T16:34:03.747Z,29.10
2018-09-03T16:36:32.079Z,29.00
2018-09-03T16:39:00.491Z,29.00
2018-09-03T16:41:28.835Z,28.90
2018-09-03T16:43:57.272Z,28.70
2018-09-03T16:46:25.573Z,28.60
2018-09-03T16:48:53.966Z,28.30
2018-09-03T16:51:26.269Z,28.10
2018-09-03T16:53:54.617Z,27.90
2018-09-03T16:56:23.003Z,27.70
2018-09-03T16:58:51.362Z,27.60
2018-09-03T17:01:19.936Z,27.40
2018-09-03T17:03:48.081Z,27.30
2018-09-03T17:06:16.372Z,27.20
2018-09-03T17:08:44.675Z,27.10
2018-09-03T17:11:13.108Z,26.90
2018-09-03T17:13:41.500Z,26.90
2018-09-03T17:16:09.916Z,26.70
2018-09-03T17:18:38.467Z,26.60
2018-09-03T17:21:07.150Z,26.50
2018-09-03T17:23:35.604Z,26.40
2018-09-03T17:26:04.036Z,26.40
2018-09-03T17:28:32.547Z,26.30
2018-09-03T17:31:01.086Z,26.20
2018-09-03T17:33:29.439Z,26.10
2018-09-03T17:35:57.800Z,26.00
2018-09-03T17:38:26.185Z,26.00
2018-09-03T17:40:54.513Z,25.90
2018-09-03T17:43:22.891Z,25.80
2018-09-03T17:45:51.337Z,25.60
2018-09-03T17:48:19.663Z,25.50
2018-09-03T17:50:48.020Z,25.40
2018-09-03T17:53:24.833Z,25.30
2018-09-03T17:55:53.234Z,25.20
2018-09-03T17:58:21.615Z,25.10
2018-09-03T18:00:50.020Z,25.00
2018-09-03T18:03:18.373Z,24.90
2018-09-03T18:05:46.889Z,24.90
2018-09-03T18:08:16.543Z,24.70
2018-09-03T18:10:46.667Z,24.70
2018-09-03T18:13:15.948Z,24.60
2018-09-03T18:15:44.603Z,24.60
2018-09-03T18:18:14.792Z,24.40
2018-09-03T18:20:43.275Z,24.40
2018-09-03T18:23:11.736Z,24.30
2018-09-03T18:28:51.218Z,24.20
2018-09-03T18:31:23.922Z,24.10
2018-09-03T18:36:39.474Z,24.00
2018-09-03T18:39:14.598Z,24.00
2018-09-03T18:41:43.110Z,23.90
2018-09-03T18:44:12.957Z,23.90
2018-09-03T18:46:43.014Z,23.80
2018-09-03T18:49:15.777Z,23.80
2018-09-03T18:51:49.882Z,23.70
2018-09-03T18:54:20.745Z,23.60
2018-09-03T18:57:01.266Z,23.60
2018-09-03T18:59:33.015Z,23.50
2018-09-03T19:02:04.158Z,23.50
2018-09-03T19:04:34.686Z,23.40
2018-09-03T19:07:05.928Z,23.40
2018-09-03T19:09:35.266Z,23.30
2018-09-03T19:12:04.034Z,23.30
2018-09-03T19:14:36.389Z,23.20
2018-09-03T19:17:04.732Z,23.20
2018-09-03T19:19:33.241Z,23.20
2018-09-03T19:22:03.360Z,23.10
2018-09-03T19:24:31.886Z,23.10
2018-09-03T19:27:00.422Z,23.00
2018-09-03T19:29:28.817Z,23.00
2018-09-03T19:31:57.284Z,22.90
2018-09-03T19:34:26.001Z,22.90
2018-09-03T19:36:54.479Z,22.80
2018-09-03T19:39:22.918Z,22.80
2018-09-03T19:41:51.359Z,22.80
2018-09-03T19:44:19.872Z,22.70
2018-09-03T19:46:48.576Z,22.70
2018-09-03T19:49:17.116Z,22.60
2018-09-03T19:51:45.597Z,22.60
2018-09-03T19:54:14.546Z,22.50
2018-09-03T19:56:43.873Z,22.50
2018-09-03T19:59:12.331Z,22.50
2018-09-03T20:01:40.772Z,22.40
2018-09-03T20:04:09.471Z,22.40
2018-09-03T20:06:40.571Z,22.40
2018-09-03T20:09:09.115Z,22.30
2018-09-03T20:11:38.399Z,22.30
2018-09-03T20:14:07.198Z,22.20
2018-09-03T20:16:35.816Z,22.20
2018-09-03T20:19:05.295Z,22.10
2018-09-03T20:21:34.299Z,22.10
2018-09-03T20:24:02.701Z,22.00
2018-09-03T20:26:31.077Z,22.00
2018-09-03T20:28:59.808Z,22.00
2018-09-03T20:31:28.208Z,22.00
2018-09-03T20:34:01.919Z,21.90
2018-09-03T20:36:31.332Z,21.90
2018-09-03T20:39:01.713Z,21.90
2018-09-03T20:41:31.327Z,21.80
2018-09-03T20:43:59.996Z,21.80
2018-09-03T20:46:29.576Z,21.80
2018-09-03T20:49:05.759Z,21.70
2018-09-03T20:51:34.451Z,21.70
2018-09-03T20:54:02.839Z,21.70
2018-09-03T20:56:31.595Z,21.60
2018-09-03T20:59:02.689Z,21.50
2018-09-03T21:01:33.078Z,21.50
2018-09-03T21:04:01.564Z,21.40
2018-09-03T21:06:33.050Z,21.40
2018-09-03T21:09:03.449Z,21.30
2018-09-03T21:11:31.887Z,21.30
2018-09-03T21:14:00.199Z,21.30
2018-09-03T21:16:28.548Z,21.20
2018-09-03T21:18:59.220Z,21.20
2018-09-03T21:21:27.535Z,21.10
2018-09-03T21:23:56.312Z,21.00
2018-09-03T21:26:24.662Z,21.00
2018-09-03T21:28:53.134Z,21.00
2018-09-03T21:31:21.589Z,21.00
2018-09-03T21:33:50.988Z,20.90
2018-09-03T21:36:19.910Z,20.90
2018-09-03T21:38:48.321Z,20.90
2018-09-03T21:41:16.818Z,20.80
2018-09-03T21:43:45.162Z,20.80
2018-09-03T21:46:13.582Z,20.70
2018-09-03T21:48:42.824Z,20.70
2018-09-03T21:51:11.201Z,20.70
2018-09-03T21:53:39.763Z,20.60
2018-09-03T21:56:08.244Z,20.60
2018-09-03T21:58:36.656Z,20.60
2018-09-03T22:01:05.168Z,20.50
2018-09-03T22:03:34.269Z,20.50
2018-09-03T22:06:02.686Z,20.40
2018-09-03T22:08:31.746Z,20.40
2018-09-03T22:11:00.574Z,20.40
2018-09-03T22:13:29.566Z,20.30
2018-09-03T22:15:57.973Z,20.30
2018-09-03T22:18:26.376Z,20.30
2018-09-03T22:20:54.795Z,20.30
2018-09-03T22:23:24.213Z,20.20
2018-09-03T22:25:52.703Z,20.20
2018-09-03T22:28:21.069Z,20.10
2018-09-03T22:30:49.975Z,20.10
2018-09-03T22:33:19.493Z,20.10
2018-09-03T22:35:48.017Z,20.10
2018-09-03T22:38:16.539Z,20.00
2018-09-03T22:40:44.967Z,20.00
2018-09-03T22:43:13.484Z,20.00
2018-09-03T22:45:41.980Z,19.90
2018-09-03T22:48:10.298Z,19.90
2018-09-03T22:50:38.711Z,19.90
2018-09-03T22:53:07.103Z,19.90
2018-09-03T22:55:35.464Z,19.80
2018-09-03T22:58:03.896Z,19.90
2018-09-03T23:00:32.194Z,19.80
2018-09-03T23:03:01.630Z,19.80
2018-09-03T23:05:30.207Z,19.80
2018-09-03T23:07:58.818Z,19.70
2018-09-03T23:10:27.204Z,19.70
2018-09-03T23:12:56.836Z,19.70
2018-09-03T23:15:25.179Z,19.70
2018-09-03T23:17:54.224Z,19.70
2018-09-03T23:20:22.575Z,19.70
2018-09-03T23:22:51.023Z,19.70
2018-09-03T23:25:19.914Z,19.60
2018-09-03T23:27:48.286Z,19.60
2018-09-03T23:30:16.800Z,19.60
2018-09-03T23:32:45.145Z,19.50
2018-09-03T23:35:13.629Z,19.50
2018-09-03T23:37:42.037Z,19.50
2018-09-03T23:40:10.464Z,19.40
2018-09-03T23:42:38.767Z,19.40
2018-09-03T23:45:07.127Z,19.40
2018-09-03T23:47:35.444Z,19.30
2018-09-03T23:50:03.830Z,19.30
2018-09-03T23:52:32.178Z,19.30
2018-09-03T23:55:01.156Z,19.30
2018-09-03T23:57:29.484Z,19.20
2018-09-03T23:59:57.899Z,19.20
